Wheatfield, New York
Current Conditions -  °F | °C
As of 3:53 AM on Friday 24 Oct 2014 (Local Time) from KIAG Reporting Station
Clear Clear  
Wind Chill:   Ceiling: Unl
Heat Index:   Visibility: 10mi
Dew Point:   Wind: 9mph
Humidity: 85%   Direction: 320°NW
Pressure: 30.02"   Gusts: NA
Location:  43.1007°N, 78.9485°W
Report Text: KIAG 240753Z AUTO 32008KT 10SM CLR 07/04 A3002 RMK AO2 SLP171 T00670044
Loading
Personal Weather Stations






























Interactive Weather Map
Tropical Storm Tracking
New forecast layout! Learn more

10-Day Weather Forecast

Advertisements
Track Severe Weather on mobile